NCAR-RAP Real-Time Weather Data

Output produced by METARs form (06 May 2021  16:18 UTC)
found at http://weather.rap.ucar.edu/surface/
 
KNAK 061554Z AUTO 30007G17KT 10SM FEW055 15/03 A3004 RMK AO2 SLP173 T01500033 $
KNAK 061454Z AUTO 32008KT 10SM CLR 14/03 A3005 RMK AO2 SLP179 T01390033 50002 $
KNAK 061354Z AUTO 34013G22KT 10SM CLR 13/03 A3006 RMK AO2 SLP182 T01330033 $
KNAK 061254Z AUTO 34014G21KT 10SM CLR 13/03 A3005 RMK AO2 SLP178 T01280033 $
KNAK 061154Z AUTO 32012KT 10SM CLR 12/03 A3005 RMK AO2 SLP177 70003 T01170033 10139 20100 51016 $
KNAK 061054Z AUTO 28006KT 10SM CLR 10/02 A3004 RMK AO2 SLP175 T01000017 $
KNAK 060954Z AUTO 29006KT 10SM CLR 10/01 A3002 RMK AO2 SLP167 T01000011 $
KNAK 060854Z AUTO 29007KT 10SM CLR 11/02 A3000 RMK AO2 SLP161 T01110017 51015 $
KNAK 060754Z AUTO 30007G16KT 270V330 10SM CLR 12/02 A2999 RMK AO2 PK WND 34027/0712 SLP156 T01220017 $
KNAK 060654Z AUTO 33017G25KT 10SM CLR 13/03 A2997 RMK AO2 SLP151 T01330028 $
KNAK 060554Z AUTO 32014G21KT 10SM FEW060 14/04 A2996 RMK AO2 SLP146 T01390039 10189 20139 53008 $
KNAK 060454Z AUTO 31013G21KT 10SM CLR 14/03 A2996 RMK AO2 SLP146 T01440033 402500144 $
KNAK 060354Z AUTO 30012G21KT 10SM CLR 15/04 A2993 RMK AO2 SLP138 T01500044 $
KNAK 060254Z AUTO 30009KT 10SM CLR 16/06 A2993 RMK AO2 SLP138 T01560056 51036 $
KNAK 060154Z AUTO 29008KT 9SM CLR 16/07 A2992 RMK AO2 SLP133 T01610067 $
KNAK 060054Z AUTO 30010G27KT 10SM CLR 17/08 A2988 RMK AO2 PK WND 30029/0004 SLP118 T01720078 $